createdAt,value
2022-12-03T00:00:55.894Z,98835.98
2022-12-03T00:04:33.620Z,98833.64
2022-12-03T00:08:30.109Z,98835.33
2022-12-03T00:11:51.688Z,98832.61
2022-12-03T00:15:29.390Z,98831.06
2022-12-03T00:19:07.763Z,98831.34
2022-12-03T00:22:44.908Z,98830.09
2022-12-03T00:26:22.282Z,98830.59
2022-12-03T00:29:59.856Z,98835.15
2022-12-03T00:33:37.705Z,98835.48
2022-12-03T00:37:15.271Z,98831.91
2022-12-03T00:41:12.371Z,98832.59
2022-12-03T00:44:34.117Z,98833.79
2022-12-03T00:48:30.683Z,98834.30
2022-12-03T00:52:11.414Z,98834.96
2022-12-03T00:55:33.290Z,98835.75
2022-12-03T00:59:10.699Z,98838.36
2022-12-03T01:02:48.569Z,98841.50
2022-12-03T01:06:26.047Z,98842.31
2022-12-03T01:10:04.920Z,98840.11
2022-12-03T01:13:41.367Z,98847.31
2022-12-03T01:17:38.246Z,98850.61
2022-12-03T01:21:00.085Z,98844.67
2022-12-03T01:24:37.968Z,98837.81
2022-12-03T01:28:15.319Z,98836.39
2022-12-03T01:32:12.023Z,98826.98
2022-12-03T01:35:34.310Z,98816.30
2022-12-03T01:39:12.128Z,98811.77
2022-12-03T01:42:49.714Z,98814.56
2022-12-03T01:46:38.026Z,98816.64
2022-12-03T01:50:15.472Z,98816.69
2022-12-03T01:54:02.676Z,98810.27
2022-12-03T01:57:27.428Z,98806.39
2022-12-03T02:01:06.358Z,98806.77
2022-12-03T02:05:00.361Z,98806.59
2022-12-03T02:08:41.147Z,98799.11
2022-12-03T02:12:02.799Z,98797.52
2022-12-03T02:15:40.984Z,98807.96
2022-12-03T02:19:27.399Z,98802.79
2022-12-03T02:23:09.414Z,98809.73
2022-12-03T02:26:33.466Z,98804.98
2022-12-03T02:30:31.403Z,98802.13
2022-12-03T02:33:52.935Z,98809.48
2022-12-03T02:37:55.381Z,98814.60
2022-12-03T02:41:39.338Z,98808.70
2022-12-03T02:45:19.522Z,98812.96
2022-12-03T02:48:41.845Z,98813.12
2022-12-03T02:52:20.329Z,98811.92
2022-12-03T02:56:20.207Z,98807.09
2022-12-03T02:59:42.213Z,98810.75
2022-12-03T03:03:21.050Z,98811.89
2022-12-03T03:07:16.428Z,98809.17
2022-12-03T03:11:00.350Z,98811.55
2022-12-03T03:14:40.705Z,98808.64
2022-12-03T03:18:02.213Z,98810.73
2022-12-03T03:21:39.912Z,98810.27
2022-12-03T03:25:21.148Z,98809.13
2022-12-03T03:28:55.424Z,98812.41
2022-12-03T03:32:34.247Z,98814.14
2022-12-03T03:36:30.678Z,98805.96
2022-12-03T03:40:11.457Z,98796.23
2022-12-03T03:43:52.466Z,98793.95
2022-12-03T03:47:14.879Z,98786.08
2022-12-03T03:50:52.389Z,98798.98
2022-12-03T03:54:29.615Z,98806.45
2022-12-03T03:58:07.275Z,98804.44
2022-12-03T04:02:03.450Z,98806.16
2022-12-03T04:05:44.144Z,98808.23
2022-12-03T04:09:05.823Z,98808.24
2022-12-03T04:26:55.209Z,98807.34
2022-12-03T04:30:17.111Z,98803.48
2022-12-03T04:34:32.275Z,98802.52
2022-12-03T04:38:15.218Z,98801.39
2022-12-03T04:41:36.944Z,98803.20
2022-12-03T04:45:33.663Z,98802.93
2022-12-03T04:49:14.482Z,98804.14
2022-12-03T04:52:54.942Z,98800.17
2022-12-03T04:56:17.067Z,98798.23
2022-12-03T04:59:54.931Z,98792.08
2022-12-03T05:03:32.480Z,98799.90
2022-12-03T05:07:10.269Z,98796.08
2022-12-03T05:10:47.786Z,98790.56
2022-12-03T05:14:25.591Z,98795.91
2022-12-03T05:18:03.209Z,98804.34
2022-12-03T05:21:40.861Z,98806.95
2022-12-03T05:25:18.547Z,98800.45
2022-12-03T05:28:56.291Z,98794.41
2022-12-03T05:32:33.863Z,98792.51
2022-12-03T05:36:12.104Z,98784.33
2022-12-03T05:39:49.163Z,98786.98
2022-12-03T05:43:27.212Z,98777.61
2022-12-03T05:47:23.344Z,98770.48
2022-12-03T05:50:46.809Z,98775.09
2022-12-03T05:54:22.513Z,98771.89
2022-12-03T05:58:19.228Z,98770.24
2022-12-03T06:01:41.931Z,98771.13
2022-12-03T06:05:37.786Z,98768.91
2022-12-03T06:09:18.407Z,98769.74
2022-12-03T06:12:40.637Z,98769.70
2022-12-03T06:16:17.454Z,98770.52
2022-12-03T06:20:16.953Z,98771.10
2022-12-03T06:23:44.667Z,98775.64
2022-12-03T06:27:35.259Z,98783.48
2022-12-03T06:31:15.897Z,98783.72
2022-12-03T06:34:38.339Z,98787.30
2022-12-03T06:38:15.474Z,98795.67
2022-12-03T06:41:53.352Z,98796.55
2022-12-03T06:45:49.802Z,98795.52
2022-12-03T06:49:30.263Z,98797.42
2022-12-03T06:52:51.776Z,98804.52
2022-12-03T06:56:35.006Z,98806.70
2022-12-03T07:00:09.274Z,98806.36
2022-12-03T07:03:44.839Z,98806.27
2022-12-03T07:07:41.301Z,98806.61
2022-12-03T07:11:30.691Z,98811.20
2022-12-03T07:14:52.482Z,98813.58
2022-12-03T07:18:29.946Z,98827.70
2022-12-03T07:22:07.608Z,98828.17
2022-12-03T07:26:04.406Z,98828.25
2022-12-03T07:29:26.563Z,98826.67
2022-12-03T07:33:04.423Z,98826.14
2022-12-03T07:37:00.742Z,98824.73
2022-12-03T07:40:22.543Z,98832.81
2022-12-03T07:44:00.158Z,98832.61
2022-12-03T07:47:56.828Z,98831.91
2022-12-03T07:51:18.844Z,98834.13
2022-12-03T07:55:15.615Z,98827.32
2022-12-03T07:58:56.292Z,98821.35
2022-12-03T08:02:36.858Z,98819.97
2022-12-03T08:05:58.946Z,98821.14
2022-12-03T08:09:39.974Z,98815.27
2022-12-03T08:13:17.172Z,98811.58
2022-12-03T08:16:52.216Z,98811.06
2022-12-03T08:20:35.014Z,98810.17
2022-12-03T08:24:26.401Z,98811.22
2022-12-03T08:28:13.598Z,98810.35
2022-12-03T08:31:35.428Z,98820.71
2022-12-03T08:35:21.543Z,98823.41
2022-12-03T08:39:30.483Z,98819.85
2022-12-03T08:46:31.951Z,98820.62
2022-12-03T08:50:31.386Z,98827.35
2022-12-03T08:54:09.993Z,98823.52
2022-12-03T08:57:36.561Z,98819.67
2022-12-03T09:01:36.436Z,98818.58
2022-12-03T09:05:24.975Z,98819.58
2022-12-03T09:08:47.617Z,98818.15
2022-12-03T09:12:24.546Z,98814.83
2022-12-03T09:16:21.417Z,98814.29
2022-12-03T09:19:46.191Z,98815.40
2022-12-03T09:23:39.462Z,98817.03
2022-12-03T09:27:03.609Z,98817.14
2022-12-03T09:30:38.939Z,98816.38
2022-12-03T09:34:16.622Z,98815.13
2022-12-03T09:37:54.415Z,98821.04
2022-12-03T09:41:50.918Z,98829.07
2022-12-03T09:45:14.686Z,98827.58
2022-12-03T09:48:50.474Z,98826.93
2022-12-03T09:52:49.347Z,98828.52
2022-12-03T09:56:23.391Z,98838.55
2022-12-03T09:59:49.604Z,98837.84
2022-12-03T10:03:30.528Z,98832.23
2022-12-03T10:07:24.587Z,98829.39
2022-12-03T10:11:05.469Z,98825.59
2022-12-03T10:14:46.242Z,98820.09
2022-12-03T10:18:31.020Z,98818.73
2022-12-03T10:22:12.510Z,98817.08
2022-12-03T10:26:02.456Z,98811.27
2022-12-03T10:29:42.268Z,98815.00
2022-12-03T10:33:37.389Z,98807.13
2022-12-03T10:37:31.275Z,98808.75
2022-12-03T10:40:55.091Z,98800.38
2022-12-03T10:44:31.889Z,98793.92
2022-12-03T10:48:28.722Z,98798.65
2022-12-03T10:52:25.713Z,98803.63
2022-12-03T10:56:14.162Z,98797.83
2022-12-03T10:59:55.774Z,98794.95
2022-12-03T11:03:36.359Z,98796.54
2022-12-03T11:08:04.096Z,98791.79
2022-12-03T11:11:52.421Z,98800.63
2022-12-03T11:15:42.782Z,98802.20
2022-12-03T11:19:45.648Z,98801.09
2022-12-03T11:23:36.149Z,98795.29
2022-12-03T11:27:04.742Z,98789.09
2022-12-03T11:30:48.841Z,98789.11
2022-12-03T11:34:49.184Z,98789.37
2022-12-03T11:38:50.867Z,98788.02
2022-12-03T11:42:39.468Z,98788.80
2022-12-03T11:46:09.637Z,98793.70
2022-12-03T11:49:46.880Z,98798.28
2022-12-03T11:53:21.274Z,98798.67
2022-12-03T11:57:33.098Z,98799.52
2022-12-03T12:01:15.350Z,98796.73
2022-12-03T12:04:38.103Z,98788.75
2022-12-03T12:08:19.811Z,98791.11
2022-12-03T12:11:52.696Z,98786.05
2022-12-03T12:16:08.270Z,98778.98
2022-12-03T12:19:40.501Z,98781.98
2022-12-03T12:23:34.261Z,98780.21
2022-12-03T12:27:12.024Z,98769.83
2022-12-03T12:30:35.190Z,98767.61
2022-12-03T12:34:12.919Z,98763.31
2022-12-03T12:37:59.042Z,98762.41
2022-12-03T12:41:27.652Z,98757.82
2022-12-03T12:45:29.669Z,98751.73
2022-12-03T12:48:55.205Z,98740.34
2022-12-03T12:52:29.426Z,98740.89
2022-12-03T12:56:09.492Z,98740.07
2022-12-03T13:00:05.331Z,98738.06
2022-12-03T13:03:33.096Z,98735.75
2022-12-03T13:07:25.451Z,98734.82
2022-12-03T13:10:59.993Z,98742.59
2022-12-03T13:14:30.289Z,98745.09
2022-12-03T13:18:20.654Z,98744.52
2022-12-03T13:22:21.880Z,98744.39
2022-12-03T13:26:00.586Z,98740.59
2022-12-03T13:29:28.137Z,98743.56
2022-12-03T13:33:26.770Z,98748.05
2022-12-03T13:36:57.999Z,98752.55
2022-12-03T13:40:43.331Z,98756.69
2022-12-03T13:44:19.660Z,98751.67
2022-12-03T13:47:48.783Z,98748.92
2022-12-03T13:51:27.097Z,98751.64
2022-12-03T13:55:07.358Z,98752.81
2022-12-03T13:58:40.582Z,98754.54
2022-12-03T14:02:17.479Z,98755.25
2022-12-03T14:05:54.730Z,98751.59
2022-12-03T14:09:34.998Z,98748.46
2022-12-03T14:13:31.286Z,98750.60
2022-12-03T14:16:59.716Z,98750.63
2022-12-03T14:21:02.438Z,98751.17
2022-12-03T14:24:24.997Z,98750.14
2022-12-03T14:28:04.065Z,98752.98
2022-12-03T14:32:01.988Z,98752.88
2022-12-03T14:35:24.066Z,98757.67
2022-12-03T14:39:12.605Z,98755.36
2022-12-03T14:43:04.659Z,98753.35
2022-12-03T14:46:27.488Z,98754.14
2022-12-03T14:50:23.111Z,98750.33
2022-12-03T14:53:44.580Z,98747.30
2022-12-03T14:57:26.296Z,98746.09
2022-12-03T15:01:18.984Z,98750.27
2022-12-03T15:04:41.187Z,98751.88
2022-12-03T15:08:18.361Z,98753.15
2022-12-03T15:11:56.119Z,98748.80
2022-12-03T15:15:33.689Z,98753.54
2022-12-03T15:20:07.752Z,98761.80
2022-12-03T15:23:49.255Z,98761.21
2022-12-03T15:27:11.099Z,98761.11
2022-12-03T15:30:49.821Z,98759.92
2022-12-03T15:34:31.109Z,98768.77
2022-12-03T15:42:22.565Z,98764.55
2022-12-03T15:45:44.913Z,98764.54
2022-12-03T15:49:41.346Z,98764.20
2022-12-03T15:53:21.797Z,98765.27
2022-12-03T15:57:03.541Z,98766.05
2022-12-03T16:00:44.417Z,98768.92
2022-12-03T16:04:06.205Z,98773.73
2022-12-03T16:07:44.032Z,98773.40
2022-12-03T16:11:34.918Z,98770.17
2022-12-03T16:14:59.176Z,98771.71
2022-12-03T16:18:57.296Z,98776.41
2022-12-03T16:22:19.497Z,98780.62
2022-12-03T16:26:02.276Z,98780.39
2022-12-03T16:29:35.777Z,98773.90
2022-12-03T16:33:24.061Z,98766.98
2022-12-03T16:37:14.219Z,98767.35
2022-12-03T16:40:52.859Z,98760.20
2022-12-03T16:45:27.787Z,98760.05
2022-12-03T16:49:16.963Z,98759.48
2022-12-03T16:57:07.533Z,98755.10
2022-12-03T17:00:29.205Z,98757.71
2022-12-03T17:04:09.706Z,98756.85
2022-12-03T17:08:03.366Z,98762.09
2022-12-03T17:11:25.477Z,98760.73
2022-12-03T17:15:22.052Z,98753.29
2022-12-03T17:19:02.828Z,98749.04
2022-12-03T17:22:24.892Z,98746.86
2022-12-03T17:26:21.472Z,98749.38
2022-12-03T17:29:45.235Z,98741.00
2022-12-03T17:33:22.916Z,98744.51
2022-12-03T17:37:19.239Z,98742.23
2022-12-03T17:40:40.780Z,98742.27
2022-12-03T17:44:21.171Z,98737.71
2022-12-03T17:47:56.020Z,98739.45
2022-12-03T17:51:33.763Z,98733.34
2022-12-03T17:55:17.635Z,98734.16
2022-12-03T17:59:08.347Z,98737.34
2022-12-03T18:02:29.777Z,98737.61
2022-12-03T18:06:07.834Z,98733.13
2022-12-03T18:09:45.185Z,98728.25
2022-12-03T18:13:22.825Z,98725.30
2022-12-03T18:17:00.614Z,98720.71
2022-12-03T18:20:38.422Z,98718.88
2022-12-03T18:24:35.030Z,98720.73
2022-12-03T18:28:16.160Z,98712.86
2022-12-03T18:31:57.009Z,98712.40
2022-12-03T18:35:18.913Z,98705.31
2022-12-03T18:38:58.527Z,98699.27
2022-12-03T18:42:54.740Z,98699.15
2022-12-03T18:46:52.949Z,98699.42
2022-12-03T18:50:15.316Z,98695.20
2022-12-03T18:54:13.067Z,98696.09
2022-12-03T18:57:53.859Z,98698.73
2022-12-03T19:01:19.925Z,98695.47
2022-12-03T19:05:11.882Z,98695.89
2022-12-03T19:08:53.859Z,98695.28
2022-12-03T19:12:16.803Z,98691.61
2022-12-03T19:15:55.271Z,98690.00
2022-12-03T19:19:49.681Z,98692.55
2022-12-03T19:23:30.614Z,98695.45
2022-12-03T19:26:54.811Z,98694.13
2022-12-03T19:30:30.252Z,98691.91
2022-12-03T19:34:07.761Z,98694.25
2022-12-03T19:38:04.463Z,98693.67
2022-12-03T19:41:30.545Z,98692.91
2022-12-03T19:45:04.665Z,98692.66
2022-12-03T19:48:42.359Z,98689.21
2022-12-03T19:52:19.464Z,98692.13
2022-12-03T19:56:12.450Z,98686.67
2022-12-03T19:59:34.960Z,98689.58
2022-12-03T20:03:12.739Z,98696.23
2022-12-03T20:06:50.403Z,98699.77
2022-12-03T20:10:28.126Z,98701.73
2022-12-03T20:14:08.726Z,98703.36
2022-12-03T20:17:43.436Z,98692.06
2022-12-03T20:21:21.180Z,98697.30
2022-12-03T20:24:58.909Z,98695.64
2022-12-03T20:28:56.786Z,98693.04
2022-12-03T20:32:18.318Z,98693.31
2022-12-03T20:35:57.269Z,98700.38
2022-12-03T20:39:35.420Z,98701.52
2022-12-03T20:43:11.155Z,98699.09
2022-12-03T20:46:50.190Z,98691.25
2022-12-03T20:50:45.383Z,98693.33
2022-12-03T20:54:25.867Z,98689.71
2022-12-03T20:57:47.753Z,98688.00
2022-12-03T21:01:27.359Z,98691.15
2022-12-03T21:05:22.195Z,98687.35
2022-12-03T21:08:49.997Z,98684.23
2022-12-03T21:12:21.891Z,98683.81
2022-12-03T21:16:08.641Z,98685.15
2022-12-03T21:19:37.920Z,98680.25
2022-12-03T21:23:14.870Z,98678.06
2022-12-03T21:26:54.879Z,98679.78
2022-12-03T21:30:30.238Z,98673.29
2022-12-03T21:34:08.751Z,98679.19
2022-12-03T21:38:04.396Z,98678.42
2022-12-03T21:41:26.708Z,98683.38
2022-12-03T21:45:24.424Z,98678.09
2022-12-03T21:49:05.110Z,98679.92
2022-12-03T21:52:45.816Z,98685.86
2022-12-03T21:56:13.686Z,98687.14
2022-12-03T21:59:45.286Z,98686.40
2022-12-03T22:03:42.731Z,98687.02
2022-12-03T22:07:04.927Z,98688.05
2022-12-03T22:10:42.429Z,98689.64
2022-12-03T22:14:20.909Z,98690.73
2022-12-03T22:17:57.537Z,98686.70
2022-12-03T22:21:35.681Z,98687.57
2022-12-03T22:25:13.014Z,98685.98
2022-12-03T22:29:11.046Z,98685.51
2022-12-03T22:32:33.036Z,98687.45
2022-12-03T22:36:29.756Z,98681.59
2022-12-03T22:40:10.648Z,98678.13
2022-12-03T22:43:32.612Z,98672.66
2022-12-03T22:47:10.249Z,98667.07
2022-12-03T22:50:48.581Z,98671.12
2022-12-03T22:54:25.599Z,98669.88
2022-12-03T22:58:04.443Z,98666.27
2022-12-03T23:01:41.671Z,98660.23
2022-12-03T23:05:39.160Z,98657.89
2022-12-03T23:09:01.464Z,98654.23
2022-12-03T23:12:38.628Z,98650.00
2022-12-03T23:16:19.257Z,98647.34
2022-12-03T23:19:55.597Z,98643.95
2022-12-03T23:23:31.714Z,98641.36
2022-12-03T23:27:09.460Z,98640.29
2022-12-03T23:30:47.192Z,98646.59
2022-12-03T23:34:24.986Z,98639.95
2022-12-03T23:38:02.555Z,98638.48
2022-12-03T23:41:59.029Z,98635.66
2022-12-03T23:45:20.860Z,98635.67
2022-12-03T23:48:59.433Z,98634.89
2022-12-03T23:52:36.208Z,98632.09
2022-12-03T23:56:32.786Z,98629.62
